Time,TemperatureF,DewpointF,PressureIn,WindDirection,WindDirectionDegrees,WindSpeedMPH,WindSpeedGustMPH,Humidity,HourlyPrecipIn,Conditions,Clouds,dailyrainin,SoftwareType,DateUTC
2013-05-02 00:52:00,16.0,11.0,-100.00,SE,137,2.0,2.0,81,-99.99,,,-99.99,,2013-05-02 06:52:00,
2013-05-02 01:01:00,16.0,11.0,-100.00,SE,137,2.0,2.0,81,-99.99,,,-99.99,,2013-05-02 07:01:00,
2013-05-02 01:11:00,16.0,11.0,-100.00,SE,137,2.0,2.0,81,-99.99,,,-99.99,,2013-05-02 07:11:00,
2013-05-02 01:52:00,15.0,10.0,-100.00,SE,138,2.0,3.0,82,-99.99,,,-99.99,,2013-05-02 07:52:00,
2013-05-02 02:02:00,15.0,10.0,-100.00,SE,138,2.0,3.0,82,-99.99,,,-99.99,,2013-05-02 08:02:00,
2013-05-02 02:11:00,15.0,10.0,-100.00,SE,138,2.0,3.0,82,-99.99,,,-99.99,,2013-05-02 08:11:00,
2013-05-02 02:52:00,13.0,9.0,-100.00,SSE,153,0.0,2.0,83,-99.99,,,-99.99,,2013-05-02 08:52:00,
2013-05-02 03:02:00,13.0,9.0,-100.00,SSE,153,0.0,2.0,83,-99.99,,,-99.99,,2013-05-02 09:02:00,
2013-05-02 03:11:00,13.0,9.0,-100.00,SSE,153,0.0,2.0,83,-99.99,,,-99.99,,2013-05-02 09:11:00,
2013-05-02 03:52:00,12.0,8.0,-100.00,SE,140,2.0,3.0,84,-99.99,,,-99.99,,2013-05-02 09:52:00,
2013-05-02 04:02:00,12.0,8.0,-100.00,SE,140,2.0,3.0,84,-99.99,,,-99.99,,2013-05-02 10:02:00,
2013-05-02 04:12:00,12.0,8.0,-100.00,SE,140,2.0,3.0,84,-99.99,,,-99.99,,2013-05-02 10:12:00,
2013-05-02 04:53:00,11.0,7.0,-100.00,SSE,150,1.0,2.0,84,-99.99,,,-99.99,,2013-05-02 10:53:00,
2013-05-02 05:02:00,11.0,7.0,-100.00,SSE,150,1.0,2.0,84,-99.99,,,-99.99,,2013-05-02 11:02:00,
2013-05-02 05:11:00,11.0,7.0,-100.00,SSE,150,1.0,2.0,84,-99.99,,,-99.99,,2013-05-02 11:11:00,
2013-05-02 05:52:00,9.0,6.0,-100.00,SSE,148,1.0,2.0,85,-99.99,,,-99.99,,2013-05-02 11:52:00,
2013-05-02 06:01:00,9.0,6.0,-100.00,SSE,148,1.0,2.0,85,-99.99,,,-99.99,,2013-05-02 12:01:00,
2013-05-02 06:11:00,9.0,6.0,-100.00,SSE,148,1.0,2.0,85,-99.99,,,-99.99,,2013-05-02 12:11:00,
2013-05-02 06:52:00,9.0,5.0,-100.00,SE,140,2.0,2.0,84,-99.99,,,-99.99,,2013-05-02 12:52:00,
2013-05-02 07:01:00,9.0,5.0,-100.00,SE,140,2.0,2.0,84,-99.99,,,-99.99,,2013-05-02 13:01:00,
2013-05-02 07:11:00,9.0,5.0,-100.00,SE,140,2.0,2.0,84,-99.99,,,-99.99,,2013-05-02 13:11:00,
2013-05-02 07:52:00,15.0,7.0,-100.00,SE,140,0.0,1.0,70,-99.99,,,-99.99,,2013-05-02 13:52:00,
2013-05-02 08:02:00,15.0,7.0,-100.00,SE,140,0.0,1.0,70,-99.99,,,-99.99,,2013-05-02 14:02:00,
2013-05-02 08:11:00,15.0,7.0,-100.00,SE,140,0.0,1.0,70,-99.99,,,-99.99,,2013-05-02 14:11:00,
2013-05-02 08:52:00,25.0,12.0,-100.00,West,280,0.0,2.0,56,-99.99,,,-99.99,,2013-05-02 14:52:00,
2013-05-02 09:12:00,25.0,12.0,-100.00,West,280,0.0,2.0,56,-99.99,,,-99.99,,2013-05-02 15:12:00,
2013-05-02 10:02:00,32.0,12.0,-100.00,NNE,20,2.0,3.0,43,-99.99,,,-99.99,,2013-05-02 16:02:00,
2013-05-02 10:13:00,32.0,12.0,-100.00,NNE,20,2.0,3.0,43,-99.99,,,-99.99,,2013-05-02 16:13:00,
2013-05-02 10:52:00,36.0,8.0,-100.00,ESE,105,1.0,2.0,31,-99.99,,,-99.99,,2013-05-02 16:52:00,
2013-05-02 11:02:00,36.0,8.0,-100.00,ESE,105,1.0,2.0,31,-99.99,,,-99.99,,2013-05-02 17:02:00,
2013-05-02 11:12:00,36.0,8.0,-100.00,ESE,105,1.0,2.0,31,-99.99,,,-99.99,,2013-05-02 17:12:00,
2013-05-02 11:52:00,41.0,8.0,-100.00,NNW,342,3.0,5.0,25,-99.99,,,-99.99,,2013-05-02 17:52:00,
2013-05-02 12:01:00,41.0,8.0,-100.00,NNW,342,3.0,5.0,25,-99.99,,,-99.99,,2013-05-02 18:01:00,
2013-05-02 12:11:00,41.0,8.0,-100.00,NNW,342,3.0,5.0,25,-99.99,,,-99.99,,2013-05-02 18:11:00,
2013-05-02 12:52:00,43.0,9.0,-100.00,West,262,5.0,8.0,24,-99.99,,,-99.99,,2013-05-02 18:52:00,
2013-05-02 13:01:00,43.0,9.0,-100.00,West,262,5.0,8.0,24,-99.99,,,-99.99,,2013-05-02 19:01:00,
2013-05-02 13:11:00,43.0,9.0,-100.00,West,262,5.0,8.0,24,-99.99,,,-99.99,,2013-05-02 19:11:00,
2013-05-02 17:52:00,45.0,11.0,-100.00,WSW,240,8.0,14.0,24,-99.99,,,-99.99,,2013-05-02 23:52:00,
2013-05-02 18:01:00,45.0,11.0,-100.00,WSW,240,8.0,14.0,24,-99.99,,,-99.99,,2013-05-03 00:01:00,
2013-05-02 18:11:00,45.0,11.0,-100.00,WSW,240,8.0,14.0,24,-99.99,,,-99.99,,2013-05-03 00:11:00,
2013-05-02 18:52:00,45.0,13.0,-100.00,WSW,254,4.0,8.0,27,-99.99,,,-99.99,,2013-05-03 00:52:00,
2013-05-02 19:01:00,45.0,13.0,-100.00,WSW,254,4.0,8.0,27,-99.99,,,-99.99,,2013-05-03 01:01:00,
2013-05-02 19:11:00,45.0,13.0,-100.00,WSW,254,4.0,8.0,27,-99.99,,,-99.99,,2013-05-03 01:11:00,
2013-05-02 19:52:00,45.0,11.0,-100.00,SSW,201,2.0,5.0,25,-99.99,,,-99.99,,2013-05-03 01:52:00,
2013-05-02 20:01:00,45.0,11.0,-100.00,SSW,201,2.0,5.0,25,-99.99,,,-99.99,,2013-05-03 02:01:00,
2013-05-02 20:11:00,45.0,11.0,-100.00,SSW,201,2.0,5.0,25,-99.99,,,-99.99,,2013-05-03 02:11:00,
2013-05-02 20:52:00,42.0,11.0,-100.00,WNW,286,4.0,6.0,28,-99.99,,,-99.99,,2013-05-03 02:52:00,
2013-05-02 21:01:00,42.0,11.0,-100.00,WNW,286,4.0,6.0,28,-99.99,,,-99.99,,2013-05-03 03:01:00,
2013-05-02 21:11:00,42.0,11.0,-100.00,WNW,286,4.0,6.0,28,-99.99,,,-99.99,,2013-05-03 03:11:00,
2013-05-02 21:53:00,34.0,17.0,-100.00,SSE,150,1.0,3.0,51,-99.99,,,-99.99,,2013-05-03 03:53:00,
2013-05-02 22:02:00,34.0,17.0,-100.00,SSE,150,1.0,3.0,51,-99.99,,,-99.99,,2013-05-03 04:02:00,
2013-05-02 22:12:00,34.0,17.0,-100.00,SSE,150,1.0,3.0,51,-99.99,,,-99.99,,2013-05-03 04:12:00,
2013-05-02 22:53:00,29.0,18.0,-100.00,SE,125,1.0,1.0,62,-99.99,,,-99.99,,2013-05-03 04:53:00,
2013-05-02 23:02:00,29.0,18.0,-100.00,SE,125,1.0,1.0,62,-99.99,,,-99.99,,2013-05-03 05:02:00,
2013-05-02 23:12:00,29.0,18.0,-100.00,SE,125,1.0,1.0,62,-99.99,,,-99.99,,2013-05-03 05:12:00,